SIA26 WSSS-EDDF
Flight info
| Callsign | SIA26 |
|---|---|
| Flight time | 2h 10m |
| Altitude | 30000 |
| Route | AROSO3E AROSO Y513 KALIL Y501 RINBA Y503 VPL P628 VATLA/N0509F320 P628 URKOK DCT NIKIR DCT OPASA P628 VIKIT/N0499F340 P628 RK G202 ZB L750 RANAH B449 ETRAP B447 KRS B143 TUNEK A909 RODAR M11 ALUVO/N0485F360 M11 REBLO UM11 CRM UL746 ODERO DCT OPT DCT TEGRI DCT ARSIN DCT SUBEN DCT AKINI T161 DEBHI DEBHI1B |
| Aircraft | B77W/H-SDE1E2E3FGHIJ2J3J4J5M1RWXY/LB1D1 |
Departure
| Time | 2026-05-04 13:54 |
|---|---|
| Airport | Singapore Changi Airport (WSSS) |
Arrival
| Time | 2026-05-04 16:04 |
|---|---|
| Airport | Frankfurt Main Airport (EDDF) |
| Time | Latitude | Longitude | Altitude | Speed | Heading |
|---|---|---|---|---|---|
| 2026-05-04 13:32 | 1.35488 | 103.98397 | 35 ft | 0 kts | 95° |
| 2026-05-04 13:43 | 1.35490 | 103.98379 | 35 ft | 4 kts | 95° |
| 2026-05-04 13:44 | 1.35492 | 103.98352 | 35 ft | 4 kts | 95° |
| 2026-05-04 13:44 | 1.35493 | 103.98330 | 35 ft | 4 kts | 96° |
| 2026-05-04 13:44 | 1.35501 | 103.98306 | 34 ft | 4 kts | 137° |
| 2026-05-04 13:44 | 1.35519 | 103.98301 | 31 ft | 3 kts | 202° |
| 2026-05-04 13:45 | 1.35544 | 103.98311 | 32 ft | 4 kts | 202° |
| 2026-05-04 13:45 | 1.35553 | 103.98315 | 33 ft | 0 kts | 202° |
| 2026-05-04 13:49 | 1.35548 | 103.98313 | 33 ft | 3 kts | 202° |
| 2026-05-04 13:49 | 1.35512 | 103.98298 | 31 ft | 8 kts | 202° |
| 2026-05-04 13:49 | 1.35440 | 103.98268 | 35 ft | 14 kts | 203° |
| 2026-05-04 13:49 | 1.35336 | 103.98224 | 35 ft | 17 kts | 203° |
| 2026-05-04 13:50 | 1.35225 | 103.98177 | 35 ft | 17 kts | 202° |
| 2026-05-04 13:50 | 1.35114 | 103.98130 | 35 ft | 17 kts | 202° |
| 2026-05-04 13:50 | 1.35004 | 103.98084 | 35 ft | 17 kts | 203° |
| 2026-05-04 13:50 | 1.34907 | 103.98043 | 35 ft | 14 kts | 202° |
| 2026-05-04 13:51 | 1.34843 | 103.98016 | 35 ft | 8 kts | 202° |
| 2026-05-04 13:51 | 1.34809 | 103.97976 | 35 ft | 8 kts | 276° |
| 2026-05-04 13:51 | 1.34836 | 103.97924 | 35 ft | 8 kts | 294° |
| 2026-05-04 13:51 | 1.34846 | 103.97900 | 35 ft | 0 kts | 293° |
| 2026-05-04 13:52 | 1.34858 | 103.97872 | 35 ft | 9 kts | 293° |
| 2026-05-04 13:52 | 1.34886 | 103.97808 | 35 ft | 10 kts | 293° |
| 2026-05-04 13:52 | 1.34909 | 103.97764 | 35 ft | 6 kts | 314° |
| 2026-05-04 13:53 | 1.34949 | 103.97766 | 35 ft | 6 kts | 22° |
| 2026-05-04 13:53 | 1.35020 | 103.97797 | 35 ft | 29 kts | 23° |
| 2026-05-04 13:53 | 1.35466 | 103.97985 | 35 ft | 110 kts | 22° |
| 2026-05-04 13:54 | 1.37682 | 103.98932 | 426 ft | 207 kts | 23° |
| 2026-05-04 13:54 | 1.39035 | 103.99517 | 1078 ft | 216 kts | 23° |
| 2026-05-04 13:54 | 1.41857 | 104.00706 | 2262 ft | 228 kts | 22° |
| 2026-05-04 13:55 | 1.43339 | 104.01325 | 2672 ft | 231 kts | 22° |
| 2026-05-04 13:55 | 1.46477 | 104.02640 | 3252 ft | 261 kts | 22° |
| 2026-05-04 13:55 | 1.48192 | 104.03357 | 3636 ft | 272 kts | 20° |
| 2026-05-04 13:56 | 1.50061 | 104.03695 | 4022 ft | 278 kts | 352° |
| 2026-05-04 13:56 | 1.51303 | 104.03395 | 4387 ft | 278 kts | 335° |
| 2026-05-04 13:56 | 1.54786 | 104.01647 | 5587 ft | 283 kts | 333° |
| 2026-05-04 13:57 | 1.56548 | 104.00764 | 6253 ft | 284 kts | 333° |
| 2026-05-04 13:57 | 1.58912 | 103.99577 | 7002 ft | 289 kts | 333° |
| 2026-05-04 13:58 | 1.63789 | 103.97126 | 8557 ft | 297 kts | 333° |
| 2026-05-04 13:58 | 1.67514 | 103.95257 | 9699 ft | 302 kts | 333° |
| 2026-05-04 13:58 | 1.69378 | 103.94321 | 10177 ft | 306 kts | 334° |
| 2026-05-04 13:59 | 1.71359 | 103.93328 | 10391 ft | 324 kts | 333° |
| 2026-05-04 13:59 | 1.73403 | 103.92304 | 10532 ft | 342 kts | 334° |
| 2026-05-04 13:59 | 1.77262 | 103.89321 | 10724 ft | 369 kts | 306° |
| 2026-05-04 14:00 | 1.78801 | 103.87206 | 10983 ft | 382 kts | 307° |
| 2026-05-04 14:00 | 1.82050 | 103.82883 | 11993 ft | 393 kts | 308° |
| 2026-05-04 14:00 | 1.83723 | 103.80701 | 12592 ft | 396 kts | 308° |
| 2026-05-04 14:01 | 1.85413 | 103.78510 | 13158 ft | 400 kts | 308° |
| 2026-05-04 14:01 | 1.87128 | 103.76290 | 13691 ft | 405 kts | 308° |
| 2026-05-04 14:01 | 2.01256 | 103.57952 | 17395 ft | 434 kts | 309° |
| 2026-05-04 14:02 | 2.06560 | 103.51056 | 18570 ft | 445 kts | 309° |
| 2026-05-04 14:02 | 2.13469 | 103.42072 | 20079 ft | 452 kts | 308° |
| 2026-05-04 14:02 | 2.17773 | 103.30176 | 21522 ft | 463 kts | 285° |
| 2026-05-04 14:02 | 2.21309 | 103.17733 | 22898 ft | 474 kts | 287° |
| 2026-05-04 14:03 | 2.25063 | 103.04992 | 24165 ft | 481 kts | 287° |
| 2026-05-04 14:03 | 2.28825 | 102.92172 | 25258 ft | 488 kts | 287° |
| 2026-05-04 14:03 | 2.32648 | 102.79047 | 26296 ft | 496 kts | 286° |
| 2026-05-04 14:03 | 2.36554 | 102.65676 | 27197 ft | 505 kts | 287° |
| 2026-05-04 14:04 | 2.44493 | 102.38536 | 28839 ft | 517 kts | 288° |
| 2026-05-04 14:04 | 2.53133 | 102.27293 | 29441 ft | 520 kts | 325° |
| 2026-05-04 14:04 | 2.64656 | 102.18503 | 29948 ft | 524 kts | 322° |
| 2026-05-04 14:05 | 2.87394 | 102.00590 | 29845 ft | 512 kts | 322° |
| 2026-05-04 14:05 | 2.98558 | 101.91810 | 29882 ft | 511 kts | 322° |
| 2026-05-04 14:06 | 3.21266 | 101.73940 | 29879 ft | 523 kts | 322° |
| 2026-05-04 14:06 | 3.45569 | 101.59089 | 29878 ft | 508 kts | 338° |
| 2026-05-04 14:07 | 3.71648 | 101.47562 | 29976 ft | 521 kts | 337° |
| 2026-05-04 14:07 | 3.98036 | 101.35838 | 29848 ft | 510 kts | 337° |
| 2026-05-04 14:08 | 4.23871 | 101.24341 | 29958 ft | 515 kts | 337° |
| 2026-05-04 14:08 | 4.50334 | 101.12550 | 29858 ft | 518 kts | 338° |
| 2026-05-04 14:08 | 4.63412 | 101.06778 | 29783 ft | 507 kts | 338° |
| 2026-05-04 14:09 | 4.89384 | 100.95612 | 29885 ft | 516 kts | 338° |
| 2026-05-04 14:10 | 5.28613 | 100.78669 | 29795 ft | 503 kts | 338° |
| 2026-05-04 14:10 | 5.40623 | 100.71532 | 29866 ft | 509 kts | 318° |
| 2026-05-04 14:10 | 5.50625 | 100.61253 | 29899 ft | 520 kts | 315° |
| 2026-05-04 14:11 | 5.70845 | 100.40566 | 29778 ft | 510 kts | 316° |
| 2026-05-04 14:11 | 5.90618 | 100.20359 | 29926 ft | 511 kts | 316° |
| 2026-05-04 14:11 | 6.00676 | 100.10070 | 29917 ft | 518 kts | 315° |
| 2026-05-04 14:12 | 6.20590 | 99.89681 | 29791 ft | 503 kts | 316° |
| 2026-05-04 14:12 | 6.34766 | 99.66094 | 30003 ft | 519 kts | 274° |
| 2026-05-04 14:13 | 6.34847 | 99.51467 | 29950 ft | 525 kts | 270° |
| 2026-05-04 14:13 | 6.34638 | 99.36875 | 29843 ft | 517 kts | 270° |
| 2026-05-04 14:13 | 6.34426 | 99.22498 | 29827 ft | 511 kts | 270° |
| 2026-05-04 14:13 | 6.35530 | 99.08292 | 29834 ft | 514 kts | 283° |
| 2026-05-04 14:14 | 6.39779 | 98.94484 | 29987 ft | 521 kts | 289° |
| 2026-05-04 14:14 | 6.54282 | 98.51346 | 29765 ft | 506 kts | 289° |
| 2026-05-04 14:14 | 6.63270 | 98.24585 | 29873 ft | 506 kts | 289° |
| 2026-05-04 14:15 | 6.89134 | 97.74217 | 29930 ft | 516 kts | 323° |
| 2026-05-04 14:15 | 7.36653 | 97.43714 | 29805 ft | 501 kts | 329° |
| 2026-05-04 14:16 | 7.80904 | 97.09324 | 30035 ft | 514 kts | 313° |
| 2026-05-04 14:16 | 8.00148 | 96.88162 | 29952 ft | 519 kts | 313° |
| 2026-05-04 14:17 | 8.38379 | 96.45718 | 29805 ft | 503 kts | 313° |
| 2026-05-04 14:17 | 8.57320 | 96.24655 | 29983 ft | 511 kts | 313° |
| 2026-05-04 14:17 | 8.91755 | 95.78009 | 29940 ft | 517 kts | 300° |
| 2026-05-04 14:18 | 9.06272 | 95.53647 | 29810 ft | 507 kts | 301° |
| 2026-05-04 14:18 | 9.35609 | 95.04105 | 30020 ft | 523 kts | 301° |
| 2026-05-04 14:19 | 9.64095 | 94.55826 | 29786 ft | 506 kts | 301° |
| 2026-05-04 14:19 | 9.80985 | 94.33465 | 29850 ft | 499 kts | 322° |
| 2026-05-04 14:19 | 10.02881 | 94.15617 | 30050 ft | 513 kts | 319° |
| 2026-05-04 14:19 | 10.24757 | 93.96536 | 29949 ft | 519 kts | 319° |
| 2026-05-04 14:20 | 10.46570 | 93.77718 | 29774 ft | 508 kts | 319° |
| 2026-05-04 14:20 | 10.89302 | 93.40647 | 29977 ft | 511 kts | 319° |
| 2026-05-04 14:21 | 11.32840 | 93.02735 | 29822 ft | 510 kts | 319° |
| 2026-05-04 14:21 | 11.54136 | 92.84121 | 29805 ft | 499 kts | 319° |
| 2026-05-04 14:21 | 11.74513 | 92.64802 | 29940 ft | 505 kts | 311° |
| 2026-05-04 14:21 | 11.93574 | 92.43252 | 29999 ft | 517 kts | 313° |
| 2026-05-04 14:22 | 12.13233 | 92.21832 | 29860 ft | 511 kts | 312° |
| 2026-05-04 14:22 | 12.32114 | 92.01080 | 29768 ft | 498 kts | 312° |
| 2026-05-04 14:22 | 12.50911 | 91.80377 | 29914 ft | 498 kts | 312° |
| 2026-05-04 14:22 | 12.69945 | 91.59372 | 30016 ft | 509 kts | 312° |
| 2026-05-04 14:23 | 13.08332 | 91.16857 | 29782 ft | 498 kts | 312° |
| 2026-05-04 14:23 | 13.26901 | 90.96215 | 29866 ft | 492 kts | 312° |
| 2026-05-04 14:23 | 13.45617 | 90.75356 | 29995 ft | 500 kts | 312° |
| 2026-05-04 14:24 | 13.64501 | 90.54266 | 30208 ft | 499 kts | 311° |
| 2026-05-04 14:24 | 13.83102 | 90.33434 | 30556 ft | 491 kts | 311° |
| 2026-05-04 14:24 | 14.01625 | 90.12627 | 31146 ft | 496 kts | 311° |
| 2026-05-04 14:24 | 14.20325 | 89.91575 | 31726 ft | 500 kts | 311° |
| 2026-05-04 14:25 | 14.39088 | 89.70400 | 31875 ft | 496 kts | 311° |
| 2026-05-04 14:25 | 14.75625 | 89.29019 | 31831 ft | 481 kts | 311° |
| 2026-05-04 14:25 | 14.94430 | 89.09130 | 31974 ft | 488 kts | 313° |
| 2026-05-04 14:26 | 15.32568 | 88.68298 | 31843 ft | 496 kts | 312° |
| 2026-05-04 14:26 | 15.51529 | 88.47922 | 31772 ft | 485 kts | 312° |
| 2026-05-04 14:26 | 15.70147 | 88.27858 | 31835 ft | 482 kts | 312° |
| 2026-05-04 14:27 | 15.88843 | 88.07651 | 31979 ft | 491 kts | 312° |
| 2026-05-04 14:27 | 16.07941 | 87.86951 | 31954 ft | 500 kts | 312° |
| 2026-05-04 14:27 | 16.27185 | 87.66042 | 31825 ft | 495 kts | 312° |
| 2026-05-04 14:27 | 16.45978 | 87.45546 | 31759 ft | 483 kts | 311° |
| 2026-05-04 14:28 | 16.64459 | 87.25337 | 31870 ft | 482 kts | 311° |
| 2026-05-04 14:28 | 16.83266 | 87.04909 | 31959 ft | 493 kts | 312° |
| 2026-05-04 14:28 | 17.22040 | 86.63376 | 31806 ft | 496 kts | 312° |
| 2026-05-04 14:29 | 17.59504 | 86.22920 | 31852 ft | 484 kts | 311° |
| 2026-05-04 14:29 | 17.97699 | 85.81411 | 31905 ft | 500 kts | 311° |
| 2026-05-04 14:30 | 18.16869 | 85.60483 | 31783 ft | 491 kts | 310° |
| 2026-05-04 14:30 | 18.31253 | 85.44719 | 31748 ft | 482 kts | 310° |
| 2026-05-04 14:31 | 18.38278 | 85.37002 | 31849 ft | 491 kts | 310° |
| 2026-05-04 14:32 | 19.04107 | 84.64353 | 31811 ft | 483 kts | 310° |
| 2026-05-04 14:32 | 19.22762 | 84.43600 | 31949 ft | 491 kts | 310° |
| 2026-05-04 14:32 | 19.41792 | 84.22353 | 31961 ft | 499 kts | 310° |
| 2026-05-04 14:32 | 19.60925 | 84.01713 | 31754 ft | 492 kts | 311° |
| 2026-05-04 14:33 | 19.80078 | 83.81022 | 31743 ft | 479 kts | 311° |
| 2026-05-04 14:33 | 20.17396 | 83.40489 | 31879 ft | 491 kts | 311° |
| 2026-05-04 14:34 | 20.55686 | 82.98584 | 31742 ft | 487 kts | 310° |
| 2026-05-04 14:34 | 20.92899 | 82.57508 | 31852 ft | 483 kts | 310° |
| 2026-05-04 14:34 | 21.11866 | 82.36635 | 31898 ft | 495 kts | 310° |
| 2026-05-04 14:35 | 21.31086 | 82.15378 | 31786 ft | 494 kts | 309° |
| 2026-05-04 14:35 | 21.50010 | 81.94441 | 31660 ft | 485 kts | 310° |
| 2026-05-04 14:35 | 21.69054 | 81.74094 | 31718 ft | 480 kts | 310° |
| 2026-05-04 14:35 | 21.87965 | 81.53466 | 31869 ft | 488 kts | 309° |
| 2026-05-04 14:36 | 22.06878 | 81.32047 | 31860 ft | 496 kts | 308° |
| 2026-05-04 14:36 | 22.44805 | 80.89606 | 31714 ft | 480 kts | 308° |
| 2026-05-04 14:36 | 22.63355 | 80.68739 | 31842 ft | 484 kts | 308° |
| 2026-05-04 14:37 | 22.82203 | 80.47455 | 31970 ft | 496 kts | 308° |
| 2026-05-04 14:37 | 23.01362 | 80.25736 | 31799 ft | 496 kts | 308° |
| 2026-05-04 14:37 | 23.19944 | 80.04153 | 31639 ft | 474 kts | 301° |
| 2026-05-04 14:37 | 23.32897 | 79.79983 | 31826 ft | 466 kts | 295° |
| 2026-05-04 14:38 | 23.46438 | 79.55321 | 31957 ft | 481 kts | 296° |
| 2026-05-04 14:38 | 23.60113 | 79.30136 | 31792 ft | 481 kts | 296° |
| 2026-05-04 14:38 | 23.73389 | 79.05633 | 31716 ft | 468 kts | 296° |
| 2026-05-04 14:39 | 24.00067 | 78.55962 | 31889 ft | 481 kts | 297° |
| 2026-05-04 14:39 | 24.27554 | 78.05748 | 31774 ft | 476 kts | 297° |
| 2026-05-04 14:40 | 24.67689 | 77.31500 | 31946 ft | 486 kts | 298° |
| 2026-05-04 14:40 | 24.81612 | 77.05902 | 31808 ft | 484 kts | 298° |
| 2026-05-04 14:40 | 24.95260 | 76.80744 | 31649 ft | 471 kts | 298° |
| 2026-05-04 14:41 | 25.10162 | 76.57055 | 31800 ft | 472 kts | 306° |
| 2026-05-04 14:41 | 25.26433 | 76.34023 | 31894 ft | 481 kts | 304° |
| 2026-05-04 14:41 | 25.51014 | 75.98322 | 31658 ft | 477 kts | 304° |
| 2026-05-04 14:42 | 25.81858 | 75.53192 | 31833 ft | 473 kts | 304° |
| 2026-05-04 14:42 | 26.12152 | 75.04522 | 31784 ft | 475 kts | 302° |
| 2026-05-04 14:43 | 26.25514 | 74.79808 | 31671 ft | 459 kts | 295° |
| 2026-05-04 14:43 | 26.37682 | 74.54866 | 31834 ft | 458 kts | 296° |
| 2026-05-04 14:43 | 26.50050 | 74.29721 | 31829 ft | 469 kts | 296° |
| 2026-05-04 14:43 | 26.62739 | 74.03987 | 31834 ft | 472 kts | 297° |
| 2026-05-04 14:44 | 26.75365 | 73.78492 | 31682 ft | 463 kts | 297° |
| 2026-05-04 14:44 | 26.87691 | 73.53359 | 31660 ft | 460 kts | 297° |
| 2026-05-04 14:44 | 27.00092 | 73.27930 | 31852 ft | 471 kts | 297° |
| 2026-05-04 14:44 | 27.12526 | 73.01837 | 31791 ft | 473 kts | 297° |
| 2026-05-04 14:45 | 27.20660 | 72.84736 | 31677 ft | 464 kts | 298° |
| 2026-05-04 14:45 | 27.32603 | 72.59528 | 31580 ft | 451 kts | 298° |
| 2026-05-04 14:45 | 27.44340 | 72.34580 | 31724 ft | 452 kts | 298° |
| 2026-05-04 14:45 | 27.56183 | 72.09245 | 31790 ft | 462 kts | 298° |
| 2026-05-04 14:46 | 27.68097 | 71.83618 | 31669 ft | 459 kts | 298° |
| 2026-05-04 14:46 | 27.79744 | 71.58410 | 31580 ft | 445 kts | 298° |
| 2026-05-04 14:46 | 27.90999 | 71.33656 | 31824 ft | 451 kts | 297° |
| 2026-05-04 14:46 | 28.02039 | 71.08058 | 33506 ft | 455 kts | 297° |
| 2026-05-04 14:47 | 28.13121 | 70.82437 | 33724 ft | 460 kts | 297° |
| 2026-05-04 14:47 | 28.24346 | 70.56287 | 33580 ft | 447 kts | 297° |
| 2026-05-04 14:47 | 28.34853 | 70.31697 | 33518 ft | 429 kts | 300° |
| 2026-05-04 14:47 | 28.55692 | 70.21304 | 33790 ft | 439 kts | 348° |
| 2026-05-04 14:48 | 29.04352 | 70.08116 | 33762 ft | 462 kts | 342° |
| 2026-05-04 14:48 | 29.53353 | 69.94093 | 33676 ft | 441 kts | 342° |
| 2026-05-04 14:49 | 29.77000 | 69.87257 | 33778 ft | 438 kts | 342° |
| 2026-05-04 14:49 | 30.00952 | 69.80301 | 33890 ft | 449 kts | 342° |
| 2026-05-04 14:49 | 30.50563 | 69.67054 | 33811 ft | 459 kts | 345° |
| 2026-05-04 14:50 | 30.75306 | 69.60959 | 33845 ft | 448 kts | 345° |
| 2026-05-04 14:50 | 30.99242 | 69.55050 | 33829 ft | 443 kts | 345° |
| 2026-05-04 14:50 | 31.23738 | 69.48962 | 33945 ft | 445 kts | 344° |
| 2026-05-04 14:50 | 31.43505 | 69.35096 | 33957 ft | 421 kts | 304° |
| 2026-05-04 14:51 | 31.58047 | 69.12853 | 33952 ft | 440 kts | 309° |
| 2026-05-04 14:51 | 31.73675 | 68.90074 | 33899 ft | 452 kts | 310° |
| 2026-05-04 14:51 | 32.05217 | 68.45878 | 33744 ft | 431 kts | 310° |
| 2026-05-04 14:52 | 32.35690 | 68.02491 | 33910 ft | 437 kts | 310° |
| 2026-05-04 14:52 | 32.51399 | 67.79932 | 33897 ft | 449 kts | 310° |
| 2026-05-04 14:52 | 32.67992 | 67.57842 | 33808 ft | 446 kts | 311° |
| 2026-05-04 14:53 | 32.99397 | 67.13673 | 33903 ft | 428 kts | 310° |
| 2026-05-04 14:53 | 33.14639 | 66.91713 | 34095 ft | 435 kts | 309° |
| 2026-05-04 14:53 | 33.30204 | 66.69142 | 34004 ft | 445 kts | 309° |
| 2026-05-04 14:54 | 33.45950 | 66.46168 | 33890 ft | 445 kts | 309° |
| 2026-05-04 14:54 | 33.61428 | 66.23364 | 33779 ft | 434 kts | 309° |
| 2026-05-04 14:54 | 33.76480 | 66.01025 | 33914 ft | 428 kts | 309° |
| 2026-05-04 14:54 | 33.91355 | 65.78818 | 34014 ft | 435 kts | 309° |
| 2026-05-04 14:55 | 34.22138 | 65.32455 | 33907 ft | 442 kts | 308° |
| 2026-05-04 14:55 | 34.37261 | 65.09478 | 33907 ft | 429 kts | 308° |
| 2026-05-04 14:55 | 34.52041 | 64.86876 | 33986 ft | 429 kts | 308° |
| 2026-05-04 14:56 | 34.66940 | 64.63910 | 34138 ft | 437 kts | 308° |
| 2026-05-04 14:56 | 34.82110 | 64.40372 | 34110 ft | 444 kts | 308° |
| 2026-05-04 14:56 | 34.97219 | 64.16772 | 33927 ft | 438 kts | 307° |
| 2026-05-04 14:56 | 35.12033 | 63.93477 | 33899 ft | 430 kts | 307° |
| 2026-05-04 14:57 | 35.26646 | 63.70344 | 34094 ft | 433 kts | 307° |
| 2026-05-04 14:57 | 35.41548 | 63.46670 | 34066 ft | 444 kts | 307° |
| 2026-05-04 14:57 | 35.56645 | 63.22560 | 33952 ft | 444 kts | 307° |
| 2026-05-04 14:57 | 35.71424 | 62.98534 | 33821 ft | 436 kts | 306° |
| 2026-05-04 14:58 | 36.00003 | 62.51486 | 33914 ft | 434 kts | 306° |
| 2026-05-04 14:58 | 36.14629 | 62.27157 | 34012 ft | 445 kts | 305° |
| 2026-05-04 14:58 | 36.29345 | 62.02515 | 33907 ft | 444 kts | 304° |
| 2026-05-04 14:59 | 36.57949 | 61.54074 | 33871 ft | 428 kts | 304° |
| 2026-05-04 14:59 | 36.85981 | 61.04886 | 34016 ft | 443 kts | 303° |
| 2026-05-04 15:00 | 37.00170 | 60.79829 | 33922 ft | 437 kts | 306° |
| 2026-05-04 15:00 | 37.29577 | 60.32789 | 33899 ft | 427 kts | 306° |
| 2026-05-04 15:01 | 37.59207 | 59.84437 | 33939 ft | 441 kts | 306° |
| 2026-05-04 15:01 | 37.73808 | 59.60335 | 33804 ft | 433 kts | 305° |
| 2026-05-04 15:01 | 38.00696 | 59.10923 | 33850 ft | 423 kts | 299° |
| 2026-05-04 15:02 | 38.12951 | 58.85356 | 33916 ft | 434 kts | 300° |
| 2026-05-04 15:02 | 38.25521 | 58.58923 | 33850 ft | 438 kts | 299° |
| 2026-05-04 15:02 | 38.48101 | 58.05465 | 33803 ft | 420 kts | 292° |
| 2026-05-04 15:03 | 38.66749 | 57.49523 | 33907 ft | 436 kts | 288° |
| 2026-05-04 15:03 | 38.82999 | 56.91560 | 33789 ft | 422 kts | 288° |
| 2026-05-04 15:04 | 38.98680 | 56.34743 | 33884 ft | 430 kts | 287° |
| 2026-05-04 15:04 | 39.12355 | 55.75618 | 33806 ft | 429 kts | 284° |
| 2026-05-04 15:05 | 39.25219 | 55.17649 | 33818 ft | 418 kts | 283° |
| 2026-05-04 15:05 | 39.38038 | 54.58299 | 33895 ft | 438 kts | 283° |
| 2026-05-04 15:06 | 39.44454 | 54.27997 | 33760 ft | 435 kts | 282° |
| 2026-05-04 15:06 | 39.51674 | 53.98349 | 33701 ft | 439 kts | 296° |
| 2026-05-04 15:06 | 39.65954 | 53.72676 | 33863 ft | 434 kts | 300° |
| 2026-05-04 15:07 | 39.93782 | 53.20451 | 33910 ft | 447 kts | 299° |
| 2026-05-04 15:07 | 40.21994 | 52.66940 | 33770 ft | 440 kts | 298° |
| 2026-05-04 15:07 | 40.30272 | 52.38461 | 33888 ft | 415 kts | 278° |
| 2026-05-04 15:08 | 40.35892 | 52.08237 | 34003 ft | 435 kts | 279° |
| 2026-05-04 15:08 | 40.47220 | 51.46374 | 33763 ft | 429 kts | 275° |
| 2026-05-04 15:08 | 40.49857 | 51.15684 | 33866 ft | 422 kts | 272° |
| 2026-05-04 15:09 | 40.52821 | 50.84798 | 33974 ft | 434 kts | 275° |
| 2026-05-04 15:09 | 40.61214 | 50.21128 | 33828 ft | 439 kts | 275° |
| 2026-05-04 15:10 | 40.72720 | 49.25802 | 33905 ft | 449 kts | 270° |
| 2026-05-04 15:10 | 40.66023 | 48.60947 | 33851 ft | 447 kts | 258° |
| 2026-05-04 15:11 | 40.62343 | 48.28937 | 33784 ft | 438 kts | 258° |
| 2026-05-04 15:11 | 40.58607 | 47.97416 | 34217 ft | 434 kts | 258° |
| 2026-05-04 15:11 | 40.59317 | 47.65027 | 34858 ft | 446 kts | 268° |
| 2026-05-04 15:11 | 40.60299 | 47.32069 | 35482 ft | 454 kts | 268° |
| 2026-05-04 15:12 | 40.62480 | 46.98982 | 35841 ft | 467 kts | 274° |
| 2026-05-04 15:12 | 40.69316 | 46.32195 | 35779 ft | 451 kts | 272° |
| 2026-05-04 15:13 | 40.75358 | 45.67421 | 35892 ft | 447 kts | 271° |
| 2026-05-04 15:13 | 40.77762 | 45.34500 | 36017 ft | 452 kts | 267° |
| 2026-05-04 15:13 | 40.79090 | 45.00876 | 35882 ft | 462 kts | 268° |
| 2026-05-04 15:13 | 40.80492 | 44.67084 | 35772 ft | 458 kts | 267° |
| 2026-05-04 15:14 | 40.81761 | 44.33828 | 35712 ft | 451 kts | 266° |
| 2026-05-04 15:14 | 40.82922 | 44.00626 | 35862 ft | 455 kts | 266° |
| 2026-05-04 15:14 | 40.84061 | 43.66712 | 35979 ft | 471 kts | 267° |
| 2026-05-04 15:14 | 40.86052 | 43.31651 | 35990 ft | 482 kts | 269° |
| 2026-05-04 15:15 | 40.87854 | 42.96938 | 35827 ft | 475 kts | 268° |
| 2026-05-04 15:15 | 40.91098 | 42.28771 | 35870 ft | 465 kts | 268° |
| 2026-05-04 15:16 | 40.92286 | 42.01263 | 35903 ft | 476 kts | 268° |
| 2026-05-04 15:16 | 40.92468 | 41.96936 | 35865 ft | 478 kts | 268° |
| 2026-05-04 15:17 | 40.93019 | 41.83931 | 35871 ft | 472 kts | 268° |
| 2026-05-04 15:17 | 40.95322 | 41.23489 | 35930 ft | 487 kts | 268° |
| 2026-05-04 15:18 | 40.96544 | 40.87793 | 35799 ft | 482 kts | 268° |
| 2026-05-04 15:18 | 40.97616 | 40.52582 | 35767 ft | 475 kts | 268° |
| 2026-05-04 15:19 | 41.02716 | 39.45828 | 35904 ft | 501 kts | 275° |
| 2026-05-04 15:19 | 41.06115 | 39.09959 | 35745 ft | 493 kts | 274° |
| 2026-05-04 15:19 | 41.16853 | 38.39540 | 35852 ft | 485 kts | 280° |
| 2026-05-04 15:20 | 41.22761 | 38.04319 | 35961 ft | 495 kts | 280° |
| 2026-05-04 15:20 | 41.28726 | 37.68134 | 35968 ft | 506 kts | 281° |
| 2026-05-04 15:20 | 41.40471 | 36.94602 | 35777 ft | 502 kts | 281° |
| 2026-05-04 15:21 | 41.51519 | 36.22286 | 35910 ft | 500 kts | 281° |
| 2026-05-04 15:21 | 41.62361 | 35.47997 | 35901 ft | 515 kts | 281° |
| 2026-05-04 15:22 | 41.67637 | 35.10472 | 35788 ft | 510 kts | 281° |
| 2026-05-04 15:22 | 41.88173 | 34.01116 | 35999 ft | 517 kts | 288° |
| 2026-05-04 15:23 | 42.03679 | 33.25712 | 35823 ft | 519 kts | 287° |
| 2026-05-04 15:23 | 42.10994 | 32.88566 | 35743 ft | 505 kts | 289° |
| 2026-05-04 15:23 | 42.18268 | 32.52915 | 35821 ft | 499 kts | 288° |
| 2026-05-04 15:24 | 42.32735 | 31.79306 | 35955 ft | 515 kts | 288° |
| 2026-05-04 15:24 | 42.46734 | 31.05225 | 35763 ft | 496 kts | 288° |
| 2026-05-04 15:25 | 42.53387 | 30.69204 | 35878 ft | 491 kts | 288° |
| 2026-05-04 15:25 | 42.59920 | 30.33045 | 35995 ft | 497 kts | 288° |
| 2026-05-04 15:25 | 42.74266 | 30.02947 | 36053 ft | 481 kts | 314° |
| 2026-05-04 15:26 | 43.07644 | 29.43451 | 35942 ft | 492 kts | 310° |
| 2026-05-04 15:26 | 43.23953 | 29.13886 | 35872 ft | 479 kts | 310° |
| 2026-05-04 15:26 | 43.55364 | 28.55984 | 36099 ft | 479 kts | 309° |
| 2026-05-04 15:27 | 43.71404 | 28.25978 | 36144 ft | 490 kts | 308° |
| 2026-05-04 15:27 | 44.03218 | 27.65522 | 35908 ft | 475 kts | 307° |
| 2026-05-04 15:28 | 44.33959 | 27.05927 | 36109 ft | 478 kts | 306° |
| 2026-05-04 15:28 | 44.49481 | 26.75307 | 36096 ft | 486 kts | 306° |
| 2026-05-04 15:28 | 44.74734 | 26.09640 | 35978 ft | 471 kts | 296° |
| 2026-05-04 15:29 | 44.85873 | 25.76402 | 36001 ft | 467 kts | 295° |
| 2026-05-04 15:30 | 45.61160 | 23.37368 | 36116 ft | 479 kts | 295° |
| 2026-05-04 15:31 | 45.92210 | 22.31833 | 36038 ft | 479 kts | 295° |
| 2026-05-04 15:32 | 46.43499 | 20.57368 | 36056 ft | 469 kts | 297° |
| 2026-05-04 15:34 | 46.96801 | 18.84799 | 36050 ft | 466 kts | 295° |
| 2026-05-04 15:34 | 47.27452 | 17.79929 | 36014 ft | 465 kts | 293° |
| 2026-05-04 15:35 | 47.56964 | 16.74451 | 35985 ft | 460 kts | 292° |
| 2026-05-04 15:36 | 47.82041 | 15.80944 | 35953 ft | 456 kts | 291° |
| 2026-05-04 15:36 | 48.00347 | 15.10221 | 35932 ft | 457 kts | 290° |
| 2026-05-04 15:37 | 48.18219 | 14.38989 | 35925 ft | 458 kts | 289° |
| 2026-05-04 15:37 | 48.35680 | 13.67116 | 35889 ft | 459 kts | 288° |
| 2026-05-04 15:38 | 48.56229 | 12.96490 | 35927 ft | 463 kts | 295° |
| 2026-05-04 15:38 | 48.79276 | 12.26833 | 35922 ft | 462 kts | 294° |
| 2026-05-04 15:39 | 49.01896 | 11.56643 | 35937 ft | 462 kts | 293° |
| 2026-05-04 15:39 | 49.10708 | 11.28764 | 35790 ft | 465 kts | 293° |
| 2026-05-04 15:40 | 49.12121 | 11.24249 | 34932 ft | 475 kts | 293° |
| 2026-05-04 15:40 | 49.13541 | 11.19708 | 34165 ft | 474 kts | 293° |
| 2026-05-04 15:40 | 49.14965 | 11.15157 | 33228 ft | 475 kts | 293° |
| 2026-05-04 15:40 | 49.16383 | 11.10620 | 32506 ft | 471 kts | 292° |
| 2026-05-04 15:41 | 49.17785 | 11.06127 | 31890 ft | 465 kts | 292° |
| 2026-05-04 15:41 | 49.19169 | 11.01686 | 31310 ft | 460 kts | 292° |
| 2026-05-04 15:41 | 49.20535 | 10.97292 | 30743 ft | 455 kts | 292° |
| 2026-05-04 15:41 | 49.21884 | 10.92939 | 30186 ft | 451 kts | 292° |
| 2026-05-04 15:42 | 49.23204 | 10.88673 | 29562 ft | 447 kts | 292° |
| 2026-05-04 15:42 | 49.24524 | 10.84402 | 28970 ft | 442 kts | 292° |
| 2026-05-04 15:42 | 49.25832 | 10.80160 | 28398 ft | 437 kts | 292° |
| 2026-05-04 15:42 | 49.27120 | 10.75978 | 27847 ft | 432 kts | 292° |
| 2026-05-04 15:43 | 49.30728 | 10.64216 | 26250 ft | 422 kts | 291° |
| 2026-05-04 15:43 | 49.34940 | 10.50425 | 24468 ft | 411 kts | 291° |
| 2026-05-04 15:43 | 49.36156 | 10.46469 | 23958 ft | 408 kts | 294° |
| 2026-05-04 15:43 | 49.37606 | 10.42725 | 23545 ft | 407 kts | 300° |
| 2026-05-04 15:44 | 49.39247 | 10.39178 | 23080 ft | 408 kts | 303° |
| 2026-05-04 15:44 | 49.40916 | 10.35722 | 22641 ft | 409 kts | 303° |
| 2026-05-04 15:44 | 49.42602 | 10.32205 | 22209 ft | 409 kts | 302° |
| 2026-05-04 15:44 | 49.48593 | 10.19182 | 20719 ft | 405 kts | 301° |
| 2026-05-04 15:45 | 49.51773 | 10.12150 | 19934 ft | 400 kts | 301° |
| 2026-05-04 15:45 | 49.53353 | 10.08652 | 19533 ft | 396 kts | 301° |
| 2026-05-04 15:45 | 49.54909 | 10.05204 | 19127 ft | 390 kts | 301° |
| 2026-05-04 15:45 | 49.56450 | 10.01787 | 18744 ft | 385 kts | 301° |
| 2026-05-04 15:46 | 49.57970 | 9.98413 | 18360 ft | 381 kts | 301° |
| 2026-05-04 15:46 | 49.59474 | 9.95068 | 17929 ft | 378 kts | 301° |
| 2026-05-04 15:46 | 49.60964 | 9.91750 | 17541 ft | 374 kts | 301° |
| 2026-05-04 15:46 | 49.62438 | 9.88463 | 17146 ft | 373 kts | 301° |
| 2026-05-04 15:47 | 49.63918 | 9.85156 | 16761 ft | 375 kts | 301° |
| 2026-05-04 15:47 | 49.65402 | 9.81834 | 16383 ft | 376 kts | 301° |
| 2026-05-04 15:47 | 49.66885 | 9.78514 | 16000 ft | 376 kts | 301° |
| 2026-05-04 15:47 | 49.68365 | 9.75198 | 15616 ft | 375 kts | 301° |
| 2026-05-04 15:48 | 49.69845 | 9.71878 | 15238 ft | 374 kts | 301° |
| 2026-05-04 15:48 | 49.71317 | 9.68573 | 14858 ft | 373 kts | 301° |
| 2026-05-04 15:48 | 49.74223 | 9.62031 | 14118 ft | 370 kts | 302° |
| 2026-05-04 15:49 | 49.75674 | 9.58757 | 13748 ft | 369 kts | 302° |
| 2026-05-04 15:49 | 49.77127 | 9.55477 | 13329 ft | 367 kts | 302° |
| 2026-05-04 15:49 | 49.78560 | 9.52238 | 12947 ft | 363 kts | 301° |
| 2026-05-04 15:49 | 49.79975 | 9.49038 | 12564 ft | 357 kts | 301° |
| 2026-05-04 15:50 | 49.81369 | 9.45877 | 12179 ft | 353 kts | 301° |
| 2026-05-04 15:50 | 49.82721 | 9.42812 | 12113 ft | 339 kts | 301° |
| 2026-05-04 15:50 | 49.84030 | 9.39838 | 12007 ft | 327 kts | 301° |
| 2026-05-04 15:50 | 49.85290 | 9.36975 | 11948 ft | 316 kts | 301° |
| 2026-05-04 15:51 | 49.86420 | 9.34163 | 11793 ft | 299 kts | 290° |
| 2026-05-04 15:51 | 49.87053 | 9.31164 | 11608 ft | 287 kts | 282° |
| 2026-05-04 15:51 | 49.87849 | 9.28351 | 11194 ft | 290 kts | 304° |
| 2026-05-04 15:51 | 49.89330 | 9.26213 | 10857 ft | 294 kts | 325° |
| 2026-05-04 15:52 | 49.91211 | 9.24995 | 10500 ft | 295 kts | 341° |
| 2026-05-04 15:52 | 49.93161 | 9.24121 | 10155 ft | 296 kts | 342° |
| 2026-05-04 15:52 | 49.95134 | 9.23238 | 9823 ft | 295 kts | 341° |
| 2026-05-04 15:52 | 49.97093 | 9.22345 | 9501 ft | 292 kts | 341° |
| 2026-05-04 15:53 | 49.99031 | 9.21447 | 9186 ft | 289 kts | 341° |
| 2026-05-04 15:53 | 50.00953 | 9.20546 | 8870 ft | 288 kts | 341° |
| 2026-05-04 15:53 | 50.02890 | 9.19862 | 8461 ft | 286 kts | 358° |
| 2026-05-04 15:53 | 50.04835 | 9.20426 | 8082 ft | 286 kts | 26° |
| 2026-05-04 15:54 | 50.06430 | 9.22178 | 7856 ft | 280 kts | 49° |
| 2026-05-04 15:54 | 50.07630 | 9.24566 | 7513 ft | 281 kts | 55° |
| 2026-05-04 15:54 | 50.08848 | 9.26947 | 7178 ft | 280 kts | 44° |
| 2026-05-04 15:54 | 50.10518 | 9.28472 | 6816 ft | 281 kts | 14° |
| 2026-05-04 15:55 | 50.12436 | 9.28635 | 6472 ft | 276 kts | 346° |
| 2026-05-04 15:55 | 50.14148 | 9.27422 | 6158 ft | 268 kts | 317° |
| 2026-05-04 15:55 | 50.15395 | 9.25354 | 5928 ft | 258 kts | 306° |
| 2026-05-04 15:55 | 50.16467 | 9.23160 | 5656 ft | 250 kts | 301° |
| 2026-05-04 15:56 | 50.17146 | 9.20783 | 5517 ft | 234 kts | 283° |
| 2026-05-04 15:56 | 50.17438 | 9.18318 | 5378 ft | 230 kts | 273° |
| 2026-05-04 15:56 | 50.17339 | 9.15840 | 5234 ft | 231 kts | 255° |
| 2026-05-04 15:56 | 50.16917 | 9.13422 | 5156 ft | 231 kts | 251° |
| 2026-05-04 15:57 | 50.16431 | 9.11071 | 5081 ft | 230 kts | 249° |
| 2026-05-04 15:57 | 50.15901 | 9.08724 | 5026 ft | 228 kts | 248° |
| 2026-05-04 15:57 | 50.15358 | 9.06406 | 5000 ft | 227 kts | 248° |
| 2026-05-04 15:57 | 50.14812 | 9.04093 | 5008 ft | 228 kts | 248° |
| 2026-05-04 15:58 | 50.14258 | 9.01763 | 5007 ft | 230 kts | 248° |
| 2026-05-04 15:58 | 50.13700 | 8.99413 | 5004 ft | 232 kts | 248° |
| 2026-05-04 15:58 | 50.13138 | 8.97048 | 5006 ft | 233 kts | 248° |
| 2026-05-04 15:58 | 50.12585 | 8.94718 | 4985 ft | 224 kts | 248° |
| 2026-05-04 15:59 | 50.12064 | 8.92518 | 5021 ft | 210 kts | 248° |
| 2026-05-04 15:59 | 50.11557 | 8.90386 | 4999 ft | 206 kts | 248° |
| 2026-05-04 15:59 | 50.11069 | 8.88333 | 4934 ft | 202 kts | 248° |
| 2026-05-04 15:59 | 50.10587 | 8.86307 | 4612 ft | 205 kts | 248° |
| 2026-05-04 16:00 | 50.10102 | 8.84270 | 4215 ft | 200 kts | 249° |
| 2026-05-04 16:00 | 50.09634 | 8.82300 | 3883 ft | 189 kts | 250° |
| 2026-05-04 16:00 | 50.09189 | 8.80432 | 3467 ft | 177 kts | 252° |
| 2026-05-04 16:00 | 50.08774 | 8.78685 | 3088 ft | 169 kts | 252° |
| 2026-05-04 16:01 | 50.08364 | 8.76957 | 2848 ft | 173 kts | 253° |
| 2026-05-04 16:01 | 50.07942 | 8.75185 | 2588 ft | 173 kts | 253° |
| 2026-05-04 16:01 | 50.07527 | 8.73440 | 2367 ft | 170 kts | 253° |
| 2026-05-04 16:01 | 50.07131 | 8.71777 | 2122 ft | 157 kts | 251° |
| 2026-05-04 16:02 | 50.06752 | 8.70182 | 1937 ft | 157 kts | 251° |
| 2026-05-04 16:02 | 50.06398 | 8.68692 | 1726 ft | 152 kts | 251° |
| 2026-05-04 16:02 | 50.05685 | 8.65706 | 1334 ft | 145 kts | 251° |
| 2026-05-04 16:03 | 50.05348 | 8.64275 | 1170 ft | 147 kts | 251° |
| 2026-05-04 16:03 | 50.04987 | 8.62789 | 997 ft | 146 kts | 252° |
| 2026-05-04 16:03 | 50.04633 | 8.61299 | 784 ft | 149 kts | 252° |
| 2026-05-04 16:03 | 50.04274 | 8.59788 | 573 ft | 149 kts | 253° |
| 2026-05-04 16:04 | 50.03926 | 8.58324 | 383 ft | 144 kts | 253° |
| 2026-05-04 16:04 | 50.03429 | 8.56236 | 360 ft | 51 kts | 250° |
| 2026-05-04 16:04 | 50.03334 | 8.55836 | 354 ft | 32 kts | 252° |
| 2026-05-04 16:05 | 50.03314 | 8.55508 | 354 ft | 25 kts | 276° |
| 2026-05-04 16:05 | 50.03334 | 8.55319 | 352 ft | 7 kts | 280° |
| 2026-05-04 16:05 | 50.03342 | 8.55249 | 347 ft | 4 kts | 279° |
| 2026-05-04 16:06 | 50.03357 | 8.55189 | 355 ft | 7 kts | 313° |
| 2026-05-04 16:06 | 50.03452 | 8.55301 | 354 ft | 14 kts | 69° |
| 2026-05-04 16:07 | 50.03523 | 8.55600 | 360 ft | 24 kts | 69° |
| 2026-05-04 16:07 | 50.03696 | 8.56327 | 362 ft | 24 kts | 70° |
| 2026-05-04 16:08 | 50.03754 | 8.56569 | 364 ft | 24 kts | 70° |
| 2026-05-04 16:08 | 50.03928 | 8.57296 | 370 ft | 24 kts | 70° |
| 2026-05-04 16:09 | 50.04043 | 8.57779 | 373 ft | 24 kts | 69° |
| 2026-05-04 16:09 | 50.04136 | 8.58124 | 376 ft | 12 kts | 45° |
| 2026-05-04 16:10 | 50.04293 | 8.58198 | 374 ft | 13 kts | 347° |
| 2026-05-04 16:11 | 50.04548 | 8.58053 | 372 ft | 13 kts | 339° |
| 2026-05-04 16:11 | 50.04616 | 8.58013 | 368 ft | 5 kts | 339° |
| 2026-05-04 16:12 | 50.04627 | 8.58007 | 368 ft | 0 kts | 339° |
| 2026-05-04 16:12 | 50.04704 | 8.57889 | 362 ft | 9 kts | 258° |
| 2026-05-04 16:13 | 50.04659 | 8.57694 | 368 ft | 10 kts | 250° |
| 2026-05-04 16:13 | 50.04626 | 8.57558 | 364 ft | 6 kts | 249° |
| 2026-05-04 16:14 | 50.04636 | 8.57433 | 363 ft | 6 kts | 295° |
| 2026-05-04 16:14 | 50.04705 | 8.57404 | 365 ft | 4 kts | 14° |
| 2026-05-04 16:15 | 50.04749 | 8.57454 | 365 ft | 1 kts | 45° |